sensor_id;sensor_type;location;lat;lon;timestamp;P1;durP1;ratioP1;P2;durP2;ratioP2
63621;SDS011;49770;47.544;19.074;2023-02-21T05:20:03;6.68;;;2.50;;
63621;SDS011;49770;47.544;19.074;2023-02-21T05:23:13;5.80;;;2.70;;
63621;SDS011;49770;47.544;19.074;2023-02-21T05:26:18;4.00;;;2.58;;
63621;SDS011;49770;47.544;19.074;2023-02-21T05:29:21;3.25;;;2.10;;
63621;SDS011;49770;47.544;19.074;2023-02-21T05:32:23;3.35;;;2.10;;
63621;SDS011;49770;47.544;19.074;2023-02-21T05:35:31;5.80;;;2.28;;
63621;SDS011;49770;47.544;19.074;2023-02-21T05:38:42;6.55;;;2.20;;
63621;SDS011;49770;47.544;19.074;2023-02-21T05:41:48;4.35;;;2.67;;
63621;SDS011;49770;47.544;19.074;2023-02-21T05:44:52;2.53;;;2.30;;
63621;SDS011;49770;47.544;19.074;2023-02-21T05:47:55;3.35;;;2.25;;
63621;SDS011;49770;47.544;19.074;2023-02-21T05:51:01;4.62;;;2.45;;
63621;SDS011;49770;47.544;19.074;2023-02-21T05:54:05;4.05;;;2.60;;
63621;SDS011;49770;47.544;19.074;2023-02-21T05:57:09;3.17;;;2.40;;
63621;SDS011;49770;47.544;19.074;2023-02-21T06:00:17;5.60;;;2.95;;
63621;SDS011;49770;47.544;19.074;2023-02-21T06:03:27;5.50;;;2.40;;
63621;SDS011;49770;47.544;19.074;2023-02-21T06:06:30;3.67;;;2.83;;
63621;SDS011;49770;47.544;19.074;2023-02-21T06:09:33;2.85;;;2.53;;
63621;SDS011;49770;47.544;19.074;2023-02-21T06:12:35;4.18;;;2.70;;
63621;SDS011;49770;47.544;19.074;2023-02-21T06:15:38;6.40;;;2.70;;
63621;SDS011;49770;47.544;19.074;2023-02-21T06:18:41;5.50;;;2.60;;
63621;SDS011;49770;47.544;19.074;2023-02-21T06:21:44;4.15;;;2.95;;
63621;SDS011;49770;47.544;19.074;2023-02-21T06:24:47;5.25;;;2.67;;
63621;SDS011;49770;47.544;19.074;2023-02-21T06:27:53;8.57;;;2.55;;
63621;SDS011;49770;47.544;19.074;2023-02-21T06:30:57;4.28;;;2.55;;
63621;SDS011;49770;47.544;19.074;2023-02-21T06:34:01;6.30;;;2.50;;
63621;SDS011;49770;47.544;19.074;2023-02-21T06:37:03;7.87;;;2.62;;
63621;SDS011;49770;47.544;19.074;2023-02-21T06:40:07;6.25;;;2.95;;
63621;SDS011;49770;47.544;19.074;2023-02-21T06:43:10;7.32;;;3.20;;
63621;SDS011;49770;47.544;19.074;2023-02-21T06:46:16;5.50;;;2.92;;
63621;SDS011;49770;47.544;19.074;2023-02-21T06:49:20;4.15;;;2.95;;
63621;SDS011;49770;47.544;19.074;2023-02-21T06:52:23;6.18;;;2.78;;
63621;SDS011;49770;47.544;19.074;2023-02-21T06:55:26;5.62;;;3.00;;
63621;SDS011;49770;47.544;19.074;2023-02-21T06:58:28;4.85;;;2.90;;
63621;SDS011;49770;47.544;19.074;2023-02-21T07:01:31;4.57;;;2.65;;
63621;SDS011;49770;47.544;19.074;2023-02-21T07:04:34;4.25;;;2.95;;
63621;SDS011;49770;47.544;19.074;2023-02-21T07:07:37;5.80;;;2.97;;
63621;SDS011;49770;47.544;19.074;2023-02-21T07:10:43;4.72;;;3.35;;
63621;SDS011;49770;47.544;19.074;2023-02-21T07:13:49;3.72;;;2.90;;
63621;SDS011;49770;47.544;19.074;2023-02-21T07:16:52;4.12;;;3.20;;
63621;SDS011;49770;47.544;19.074;2023-02-21T07:19:55;6.72;;;3.30;;
63621;SDS011;49770;47.544;19.074;2023-02-21T07:22:58;4.65;;;2.85;;
63621;SDS011;49770;47.544;19.074;2023-02-21T07:26:01;3.22;;;2.62;;
63621;SDS011;49770;47.544;19.074;2023-02-21T07:29:04;8.35;;;3.17;;
63621;SDS011;49770;47.544;19.074;2023-02-21T07:32:07;5.78;;;3.20;;
63621;SDS011;49770;47.544;19.074;2023-02-21T07:35:15;2.90;;;2.40;;
63621;SDS011;49770;47.544;19.074;2023-02-21T07:38:21;6.65;;;2.78;;
63621;SDS011;49770;47.544;19.074;2023-02-21T07:41:26;3.72;;;2.40;;
63621;SDS011;49770;47.544;19.074;2023-02-21T07:44:29;3.45;;;2.17;;
63621;SDS011;49770;47.544;19.074;2023-02-21T07:47:32;5.55;;;2.80;;
63621;SDS011;49770;47.544;19.074;2023-02-21T07:50:35;6.45;;;2.70;;
63621;SDS011;49770;47.544;19.074;2023-02-21T07:53:39;4.87;;;2.42;;
63621;SDS011;49770;47.544;19.074;2023-02-21T07:56:43;2.97;;;2.40;;
63621;SDS011;49770;47.544;19.074;2023-02-21T07:59:49;6.43;;;2.58;;
63621;SDS011;49770;47.544;19.074;2023-02-21T08:02:52;2.70;;;2.40;;
63621;SDS011;49770;47.544;19.074;2023-02-21T08:05:55;2.90;;;2.22;;
63621;SDS011;49770;47.544;19.074;2023-02-21T08:08:59;2.67;;;2.20;;
63621;SDS011;49770;47.544;19.074;2023-02-21T08:12:03;4.12;;;2.40;;
63621;SDS011;49770;47.544;19.074;2023-02-21T08:15:06;3.80;;;2.87;;
63621;SDS011;49770;47.544;19.074;2023-02-21T08:18:20;6.07;;;3.15;;
63621;SDS011;49770;47.544;19.074;2023-02-21T08:21:25;3.70;;;2.40;;
63621;SDS011;49770;47.544;19.074;2023-02-21T08:24:28;4.22;;;3.03;;
63621;SDS011;49770;47.544;19.074;2023-02-21T08:27:31;4.53;;;3.10;;
63621;SDS011;49770;47.544;19.074;2023-02-21T08:30:34;6.53;;;2.80;;
63621;SDS011;49770;47.544;19.074;2023-02-21T08:33:36;8.60;;;2.97;;
63621;SDS011;49770;47.544;19.074;2023-02-21T08:36:40;4.05;;;2.65;;
63621;SDS011;49770;47.544;19.074;2023-02-21T08:39:45;4.93;;;3.30;;
63621;SDS011;49770;47.544;19.074;2023-02-21T08:42:49;4.85;;;3.30;;
63621;SDS011;49770;47.544;19.074;2023-02-21T08:45:53;10.98;;;3.20;;
63621;SDS011;49770;47.544;19.074;2023-02-21T08:48:56;5.70;;;2.90;;
63621;SDS011;49770;47.544;19.074;2023-02-21T08:51:59;4.07;;;2.75;;
63621;SDS011;49770;47.544;19.074;2023-02-21T08:55:02;5.72;;;2.75;;
63621;SDS011;49770;47.544;19.074;2023-02-21T08:58:05;3.95;;;2.40;;
63621;SDS011;49770;47.544;19.074;2023-02-21T09:01:08;8.15;;;2.83;;
63621;SDS011;49770;47.544;19.074;2023-02-21T09:04:12;2.67;;;2.25;;
63621;SDS011;49770;47.544;19.074;2023-02-21T09:07:15;3.00;;;2.60;;
63621;SDS011;49770;47.544;19.074;2023-02-21T09:10:20;4.20;;;2.80;;
63621;SDS011;49770;47.544;19.074;2023-02-21T09:13:23;10.07;;;2.85;;
63621;SDS011;49770;47.544;19.074;2023-02-21T09:16:26;8.60;;;2.65;;
63621;SDS011;49770;47.544;19.074;2023-02-21T09:19:29;5.22;;;2.28;;
63621;SDS011;49770;47.544;19.074;2023-02-21T09:22:32;3.12;;;2.42;;
63621;SDS011;49770;47.544;19.074;2023-02-21T09:25:35;3.45;;;2.20;;
63621;SDS011;49770;47.544;19.074;2023-02-21T09:28:38;7.70;;;2.60;;
63621;SDS011;49770;47.544;19.074;2023-02-21T09:31:44;5.82;;;2.55;;
63621;SDS011;49770;47.544;19.074;2023-02-21T09:34:47;7.75;;;2.72;;
63621;SDS011;49770;47.544;19.074;2023-02-21T09:37:51;5.12;;;2.70;;
63621;SDS011;49770;47.544;19.074;2023-02-21T09:40:55;3.30;;;2.40;;
63621;SDS011;49770;47.544;19.074;2023-02-21T09:44:03;5.10;;;2.87;;
63621;SDS011;49770;47.544;19.074;2023-02-21T09:47:09;6.15;;;2.72;;
63621;SDS011;49770;47.544;19.074;2023-02-21T09:50:27;3.95;;;2.72;;
63621;SDS011;49770;47.544;19.074;2023-02-21T09:53:33;7.47;;;2.60;;
63621;SDS011;49770;47.544;19.074;2023-02-21T09:56:44;4.00;;;2.78;;
63621;SDS011;49770;47.544;19.074;2023-02-21T09:59:48;12.57;;;2.72;;
63621;SDS011;49770;47.544;19.074;2023-02-21T10:02:55;4.57;;;2.58;;
63621;SDS011;49770;47.544;19.074;2023-02-21T10:06:09;6.00;;;2.60;;
63621;SDS011;49770;47.544;19.074;2023-02-21T10:16:04;6.18;;;2.80;;
63621;SDS011;49770;47.544;19.074;2023-02-21T10:19:16;7.20;;;3.00;;
63621;SDS011;49770;47.544;19.074;2023-02-21T10:22:33;7.57;;;2.78;;
63621;SDS011;49770;47.544;19.074;2023-02-21T10:25:41;4.70;;;2.55;;
63621;SDS011;49770;47.544;19.074;2023-02-21T10:28:46;6.18;;;2.50;;
63621;SDS011;49770;47.544;19.074;2023-02-21T10:31:49;3.45;;;2.17;;
63621;SDS011;49770;47.544;19.074;2023-02-21T10:34:57;7.53;;;2.22;;
63621;SDS011;49770;47.544;19.074;2023-02-21T10:38:02;4.47;;;2.62;;
63621;SDS011;49770;47.544;19.074;2023-02-21T10:41:09;4.72;;;2.25;;
63621;SDS011;49770;47.544;19.074;2023-02-21T10:44:13;4.18;;;2.15;;
63621;SDS011;49770;47.544;19.074;2023-02-21T10:57:22;3.30;;;1.98;;
63621;SDS011;49770;47.544;19.074;2023-02-21T11:00:31;6.93;;;2.40;;
63621;SDS011;49770;47.544;19.074;2023-02-21T11:03:43;6.57;;;2.47;;
63621;SDS011;49770;47.544;19.074;2023-02-21T11:06:49;2.53;;;2.20;;
63621;SDS011;49770;47.544;19.074;2023-02-21T11:09:56;2.90;;;2.08;;
63621;SDS011;49770;47.544;19.074;2023-02-21T11:13:05;2.80;;;2.05;;
63621;SDS011;49770;47.544;19.074;2023-02-21T11:16:16;4.32;;;2.53;;
63621;SDS011;49770;47.544;19.074;2023-02-21T11:19:21;6.87;;;2.72;;
63621;SDS011;49770;47.544;19.074;2023-02-21T11:22:27;4.78;;;2.80;;
63621;SDS011;49770;47.544;19.074;2023-02-21T11:25:43;7.03;;;2.65;;
63621;SDS011;49770;47.544;19.074;2023-02-21T11:28:47;5.43;;;2.75;;
63621;SDS011;49770;47.544;19.074;2023-02-21T11:31:50;6.57;;;2.85;;
63621;SDS011;49770;47.544;19.074;2023-02-21T11:35:06;6.68;;;2.60;;
63621;SDS011;49770;47.544;19.074;2023-02-21T11:41:47;3.70;;;2.62;;
63621;SDS011;49770;47.544;19.074;2023-02-21T11:48:14;4.65;;;2.45;;
63621;SDS011;49770;47.544;19.074;2023-02-21T11:51:29;3.10;;;2.67;;
63621;SDS011;49770;47.544;19.074;2023-02-21T11:54:38;3.55;;;2.70;;
63621;SDS011;49770;47.544;19.074;2023-02-21T11:57:57;6.35;;;2.90;;
63621;SDS011;49770;47.544;19.074;2023-02-21T12:04:46;5.90;;;2.67;;
63621;SDS011;49770;47.544;19.074;2023-02-21T12:11:50;3.85;;;2.90;;
63621;SDS011;49770;47.544;19.074;2023-02-21T12:19:03;8.87;;;2.80;;
63621;SDS011;49770;47.544;19.074;2023-02-21T12:22:32;5.85;;;3.10;;
63621;SDS011;49770;47.544;19.074;2023-02-21T12:39:59;4.07;;;3.00;;
63621;SDS011;49770;47.544;19.074;2023-02-21T12:46:30;4.70;;;3.10;;
63621;SDS011;49770;47.544;19.074;2023-02-21T14:29:14;4.60;;;2.00;;
63621;SDS011;49770;47.544;19.074;2023-02-21T15:08:42;4.00;;;2.12;;
63621;SDS011;49770;47.544;19.074;2023-02-21T15:11:47;2.87;;;1.90;;
63621;SDS011;49770;47.544;19.074;2023-02-21T15:14:51;2.12;;;1.90;;
63621;SDS011;49770;47.544;19.074;2023-02-21T15:17:59;2.65;;;2.15;;
63621;SDS011;49770;47.544;19.074;2023-02-21T15:21:07;2.87;;;2.15;;
63621;SDS011;49770;47.544;19.074;2023-02-21T15:24:20;2.47;;;2.00;;
63621;SDS011;49770;47.544;19.074;2023-02-21T15:27:23;2.85;;;2.17;;
63621;SDS011;49770;47.544;19.074;2023-02-21T15:30:32;4.37;;;2.35;;
63621;SDS011;49770;47.544;19.074;2023-02-21T15:33:38;3.42;;;2.03;;
63621;SDS011;49770;47.544;19.074;2023-02-21T15:36:43;3.80;;;1.75;;
63621;SDS011;49770;47.544;19.074;2023-02-21T15:39:51;2.53;;;1.90;;
63621;SDS011;49770;47.544;19.074;2023-02-21T15:42:58;4.90;;;2.30;;
63621;SDS011;49770;47.544;19.074;2023-02-21T15:46:02;2.97;;;1.73;;
63621;SDS011;49770;47.544;19.074;2023-02-21T15:49:13;2.62;;;1.92;;
63621;SDS011;49770;47.544;19.074;2023-02-21T15:52:25;2.83;;;1.95;;
63621;SDS011;49770;47.544;19.074;2023-02-21T15:55:37;3.25;;;1.98;;
63621;SDS011;49770;47.544;19.074;2023-02-21T15:58:39;2.45;;;2.15;;
63621;SDS011;49770;47.544;19.074;2023-02-21T16:01:43;2.50;;;2.28;;
63621;SDS011;49770;47.544;19.074;2023-02-21T16:04:47;3.65;;;2.65;;
63621;SDS011;49770;47.544;19.074;2023-02-21T16:07:51;3.78;;;2.53;;
63621;SDS011;49770;47.544;19.074;2023-02-21T16:11:02;3.12;;;2.60;;
63621;SDS011;49770;47.544;19.074;2023-02-21T16:14:14;4.53;;;2.30;;
63621;SDS011;49770;47.544;19.074;2023-02-21T16:20:40;3.05;;;2.40;;
63621;SDS011;49770;47.544;19.074;2023-02-21T16:23:45;3.17;;;2.40;;
